TB554 KMEM-KMEM
Flight info
| Callsign | TB554 |
|---|---|
| Flight time | N/A |
| Altitude | |
| Route | |
| Aircraft | C172/L-DOV/C |
Departure
| Time | 2026-05-08 01:44 |
|---|---|
| Airport | Memphis International Airport (KMEM) |
Arrival
| Time | N/A |
|---|---|
| Airport | Memphis International Airport (KMEM) |
| Time | Latitude | Longitude | Altitude | Speed | Heading |
|---|---|---|---|---|---|
| 2026-05-08 01:36 | 35.03256 | -89.96756 | 298 ft | 0 kts | 321° |
| 2026-05-08 01:39 | 35.03256 | -89.96757 | 298 ft | 2 kts | 321° |
| 2026-05-08 01:39 | 35.03309 | -89.96796 | 299 ft | 12 kts | 359° |
| 2026-05-08 01:39 | 35.03321 | -89.96796 | 298 ft | 4 kts | 358° |
| 2026-05-08 01:40 | 35.03391 | -89.96833 | 300 ft | 15 kts | 320° |
| 2026-05-08 01:40 | 35.03503 | -89.96854 | 302 ft | 19 kts | 1° |
| 2026-05-08 01:40 | 35.03630 | -89.96855 | 303 ft | 17 kts | 5° |
| 2026-05-08 01:40 | 35.03760 | -89.96866 | 304 ft | 19 kts | 334° |
| 2026-05-08 01:41 | 35.03807 | -89.96987 | 305 ft | 15 kts | 269° |
| 2026-05-08 01:41 | 35.03808 | -89.97099 | 305 ft | 12 kts | 267° |
| 2026-05-08 01:41 | 35.03807 | -89.97162 | 305 ft | 0 kts | 268° |
| 2026-05-08 01:43 | 35.03807 | -89.97203 | 305 ft | 14 kts | 269° |
| 2026-05-08 01:43 | 35.03884 | -89.97276 | 305 ft | 20 kts | 358° |
| 2026-05-08 01:43 | 35.04196 | -89.97288 | 317 ft | 66 kts | 358° |
| 2026-05-08 01:44 | 35.04700 | -89.97290 | 492 ft | 74 kts | 359° |
| 2026-05-08 01:44 | 35.05225 | -89.97279 | 721 ft | 76 kts | 1° |
| 2026-05-08 01:44 | 35.05754 | -89.97283 | 938 ft | 79 kts | 0° |
| 2026-05-08 01:44 | 35.06267 | -89.97020 | 1066 ft | 86 kts | 48° |
| 2026-05-08 01:45 | 35.06423 | -89.96309 | 1173 ft | 93 kts | 93° |
| 2026-05-08 01:45 | 35.06378 | -89.95522 | 1276 ft | 94 kts | 96° |
| 2026-05-08 01:45 | 35.05966 | -89.94802 | 1202 ft | 110 kts | 145° |
| 2026-05-08 01:45 | 35.05293 | -89.94548 | 1302 ft | 97 kts | 172° |
| 2026-05-08 01:46 | 35.04638 | -89.94463 | 1323 ft | 93 kts | 177° |
| 2026-05-08 01:46 | 35.03965 | -89.94436 | 1239 ft | 99 kts | 180° |
| 2026-05-08 01:46 | 35.03276 | -89.94438 | 1203 ft | 100 kts | 180° |
| 2026-05-08 01:46 | 35.02581 | -89.94393 | 1202 ft | 99 kts | 177° |
| 2026-05-08 01:47 | 35.01894 | -89.94336 | 1210 ft | 99 kts | 178° |
| 2026-05-08 01:47 | 35.01211 | -89.94311 | 1231 ft | 97 kts | 180° |
| 2026-05-08 01:47 | 35.00527 | -89.94309 | 1219 ft | 98 kts | 181° |
| 2026-05-08 01:48 | 34.99246 | -89.94472 | 1223 ft | 87 kts | 217° |
| 2026-05-08 01:48 | 34.98976 | -89.95041 | 1187 ft | 79 kts | 272° |
| 2026-05-08 01:48 | 34.98992 | -89.95725 | 1178 ft | 80 kts | 276° |
| 2026-05-08 01:48 | 34.99126 | -89.96358 | 1157 ft | 78 kts | 308° |
| 2026-05-08 01:49 | 34.99523 | -89.96811 | 1091 ft | 80 kts | 327° |
| 2026-05-08 01:49 | 35.00020 | -89.97118 | 994 ft | 75 kts | 343° |
| 2026-05-08 01:49 | 35.00514 | -89.97212 | 831 ft | 71 kts | 358° |
| 2026-05-08 01:49 | 35.01006 | -89.97212 | 678 ft | 70 kts | 357° |
| 2026-05-08 01:50 | 35.01484 | -89.97228 | 543 ft | 68 kts | 1° |
| 2026-05-08 01:50 | 35.01956 | -89.97236 | 432 ft | 68 kts | 357° |
| 2026-05-08 01:50 | 35.02432 | -89.97248 | 311 ft | 67 kts | 357° |
| 2026-05-08 01:50 | 35.02828 | -89.97256 | 294 ft | 62 kts | 359° |
| 2026-05-08 01:51 | 35.03344 | -89.97256 | 428 ft | 79 kts | 2° |
| 2026-05-08 01:51 | 35.03899 | -89.97240 | 667 ft | 81 kts | 358° |
| 2026-05-08 01:51 | 35.04470 | -89.97261 | 908 ft | 82 kts | 360° |
| 2026-05-08 01:51 | 35.05045 | -89.97280 | 1134 ft | 84 kts | 0° |
| 2026-05-08 01:52 | 35.05601 | -89.97220 | 1098 ft | 75 kts | 24° |
| 2026-05-08 01:52 | 35.05870 | -89.96723 | 880 ft | 75 kts | 85° |
| 2026-05-08 01:52 | 35.05759 | -89.96106 | 658 ft | 76 kts | 108° |
| 2026-05-08 01:52 | 35.05564 | -89.95542 | 472 ft | 69 kts | 119° |